sensor_id;sensor_type;location;lat;lon;timestamp;temperature;humidity
9776;DHT22;4927;52.472;13.108;2024-02-15T00:00:39;8.80;99.90
9776;DHT22;4927;52.472;13.108;2024-02-15T00:01:41;8.80;99.90
9776;DHT22;4927;52.472;13.108;2024-02-15T00:02:43;8.80;99.90
9776;DHT22;4927;52.472;13.108;2024-02-15T00:03:44;8.80;99.90
9776;DHT22;4927;52.472;13.108;2024-02-15T00:04:46;8.80;99.90
9776;DHT22;4927;52.472;13.108;2024-02-15T00:05:48;8.80;99.90
9776;DHT22;4927;52.472;13.108;2024-02-15T00:06:50;8.90;99.90
9776;DHT22;4927;52.472;13.108;2024-02-15T00:07:53;8.90;99.90
9776;DHT22;4927;52.472;13.108;2024-02-15T00:08:54;8.80;99.90
9776;DHT22;4927;52.472;13.108;2024-02-15T00:09:57;8.90;99.90
9776;DHT22;4927;52.472;13.108;2024-02-15T00:10:58;8.90;99.90
9776;DHT22;4927;52.472;13.108;2024-02-15T00:12:00;8.90;99.90
9776;DHT22;4927;52.472;13.108;2024-02-15T00:13:03;8.90;99.90
9776;DHT22;4927;52.472;13.108;2024-02-15T00:14:05;8.80;99.90
9776;DHT22;4927;52.472;13.108;2024-02-15T00:15:08;8.90;99.90
9776;DHT22;4927;52.472;13.108;2024-02-15T00:16:14;8.90;99.90
9776;DHT22;4927;52.472;13.108;2024-02-15T00:17:16;10.10;99.90
9776;DHT22;4927;52.472;13.108;2024-02-15T00:18:18;8.80;99.90
9776;DHT22;4927;52.472;13.108;2024-02-15T00:19:20;8.90;99.90
9776;DHT22;4927;52.472;13.108;2024-02-15T00:20:22;8.80;99.90
9776;DHT22;4927;52.472;13.108;2024-02-15T00:21:25;8.90;99.90
9776;DHT22;4927;52.472;13.108;2024-02-15T00:22:27;8.90;99.90
9776;DHT22;4927;52.472;13.108;2024-02-15T00:23:29;8.90;99.90
9776;DHT22;4927;52.472;13.108;2024-02-15T00:24:31;8.90;99.90
9776;DHT22;4927;52.472;13.108;2024-02-15T00:25:33;8.90;99.90
9776;DHT22;4927;52.472;13.108;2024-02-15T00:26:35;7.80;99.90
9776;DHT22;4927;52.472;13.108;2024-02-15T00:27:36;8.80;99.90
9776;DHT22;4927;52.472;13.108;2024-02-15T00:28:41;8.90;99.90
9776;DHT22;4927;52.472;13.108;2024-02-15T00:29:41;8.90;99.90
9776;DHT22;4927;52.472;13.108;2024-02-15T00:30:42;8.90;99.90
9776;DHT22;4927;52.472;13.108;2024-02-15T00:31:45;8.90;99.90
9776;DHT22;4927;52.472;13.108;2024-02-15T00:32:47;8.90;99.90
9776;DHT22;4927;52.472;13.108;2024-02-15T00:33:48;8.90;99.90
9776;DHT22;4927;52.472;13.108;2024-02-15T00:34:50;8.90;99.90
9776;DHT22;4927;52.472;13.108;2024-02-15T00:35:52;8.90;99.90
9776;DHT22;4927;52.472;13.108;2024-02-15T00:36:54;8.90;99.90
9776;DHT22;4927;52.472;13.108;2024-02-15T00:37:56;8.90;99.90
9776;DHT22;4927;52.472;13.108;2024-02-15T00:38:58;8.90;99.90
9776;DHT22;4927;52.472;13.108;2024-02-15T00:40:00;8.90;99.90
9776;DHT22;4927;52.472;13.108;2024-02-15T00:41:02;8.90;99.90
9776;DHT22;4927;52.472;13.108;2024-02-15T00:42:04;8.90;99.90
9776;DHT22;4927;52.472;13.108;2024-02-15T00:43:05;8.90;99.90
9776;DHT22;4927;52.472;13.108;2024-02-15T00:44:08;8.90;99.90
9776;DHT22;4927;52.472;13.108;2024-02-15T00:45:10;8.90;99.90
9776;DHT22;4927;52.472;13.108;2024-02-15T00:46:12;8.90;99.90
9776;DHT22;4927;52.472;13.108;2024-02-15T00:47:14;8.90;99.90
9776;DHT22;4927;52.472;13.108;2024-02-15T00:48:16;8.90;99.90
9776;DHT22;4927;52.472;13.108;2024-02-15T00:49:18;8.90;99.90
9776;DHT22;4927;52.472;13.108;2024-02-15T00:50:21;8.90;99.90
9776;DHT22;4927;52.472;13.108;2024-02-15T00:51:23;8.90;99.90
9776;DHT22;4927;52.472;13.108;2024-02-15T00:52:24;8.90;99.90
9776;DHT22;4927;52.472;13.108;2024-02-15T00:53:26;8.90;99.90
9776;DHT22;4927;52.472;13.108;2024-02-15T00:54:28;8.90;99.90
9776;DHT22;4927;52.472;13.108;2024-02-15T00:55:30;8.90;99.90
9776;DHT22;4927;52.472;13.108;2024-02-15T00:56:31;8.90;99.90
9776;DHT22;4927;52.472;13.108;2024-02-15T00:57:33;8.90;99.90
9776;DHT22;4927;52.472;13.108;2024-02-15T00:58:35;8.90;99.90
9776;DHT22;4927;52.472;13.108;2024-02-15T00:59:37;8.90;99.90
9776;DHT22;4927;52.472;13.108;2024-02-15T01:00:38;8.90;99.90
9776;DHT22;4927;52.472;13.108;2024-02-15T01:01:47;8.90;99.90
9776;DHT22;4927;52.472;13.108;2024-02-15T01:02:49;8.90;99.90
9776;DHT22;4927;52.472;13.108;2024-02-15T01:03:51;8.90;99.90
9776;DHT22;4927;52.472;13.108;2024-02-15T01:04:53;8.90;99.90
9776;DHT22;4927;52.472;13.108;2024-02-15T01:05:56;8.90;99.90
9776;DHT22;4927;52.472;13.108;2024-02-15T01:06:58;8.90;99.90
9776;DHT22;4927;52.472;13.108;2024-02-15T01:07:59;8.90;99.90
9776;DHT22;4927;52.472;13.108;2024-02-15T01:09:01;8.90;99.90
9776;DHT22;4927;52.472;13.108;2024-02-15T01:10:04;8.90;99.90
9776;DHT22;4927;52.472;13.108;2024-02-15T01:11:07;8.90;99.90
9776;DHT22;4927;52.472;13.108;2024-02-15T01:12:09;8.90;99.90
9776;DHT22;4927;52.472;13.108;2024-02-15T01:13:11;8.90;99.90
9776;DHT22;4927;52.472;13.108;2024-02-15T01:14:13;8.90;99.90
9776;DHT22;4927;52.472;13.108;2024-02-15T01:15:14;8.90;99.90
9776;DHT22;4927;52.472;13.108;2024-02-15T01:16:16;8.90;99.90
9776;DHT22;4927;52.472;13.108;2024-02-15T01:17:18;8.90;99.90
9776;DHT22;4927;52.472;13.108;2024-02-15T01:18:20;8.90;99.90
9776;DHT22;4927;52.472;13.108;2024-02-15T01:19:22;8.90;99.90
9776;DHT22;4927;52.472;13.108;2024-02-15T01:20:24;8.90;99.90
9776;DHT22;4927;52.472;13.108;2024-02-15T01:21:25;8.90;99.90
9776;DHT22;4927;52.472;13.108;2024-02-15T01:22:27;8.90;99.90
9776;DHT22;4927;52.472;13.108;2024-02-15T01:23:29;8.90;99.90
9776;DHT22;4927;52.472;13.108;2024-02-15T01:24:31;8.90;99.90
9776;DHT22;4927;52.472;13.108;2024-02-15T01:25:33;8.90;99.90
9776;DHT22;4927;52.472;13.108;2024-02-15T01:26:35;8.90;99.90
9776;DHT22;4927;52.472;13.108;2024-02-15T01:27:38;8.90;99.90
9776;DHT22;4927;52.472;13.108;2024-02-15T01:28:39;8.90;99.90
9776;DHT22;4927;52.472;13.108;2024-02-15T01:29:41;9.00;99.90
9776;DHT22;4927;52.472;13.108;2024-02-15T01:30:43;8.90;99.90
9776;DHT22;4927;52.472;13.108;2024-02-15T01:31:45;8.90;99.90
9776;DHT22;4927;52.472;13.108;2024-02-15T01:32:47;8.90;99.90
9776;DHT22;4927;52.472;13.108;2024-02-15T01:33:49;8.90;99.90
9776;DHT22;4927;52.472;13.108;2024-02-15T01:34:51;8.90;99.90
9776;DHT22;4927;52.472;13.108;2024-02-15T01:35:53;9.00;99.90
9776;DHT22;4927;52.472;13.108;2024-02-15T01:36:55;8.90;99.90
9776;DHT22;4927;52.472;13.108;2024-02-15T01:37:57;8.90;99.90
9776;DHT22;4927;52.472;13.108;2024-02-15T01:38:59;8.90;99.90
9776;DHT22;4927;52.472;13.108;2024-02-15T01:40:01;9.00;99.90
9776;DHT22;4927;52.472;13.108;2024-02-15T01:41:02;9.00;99.90
9776;DHT22;4927;52.472;13.108;2024-02-15T01:42:05;9.00;99.90
9776;DHT22;4927;52.472;13.108;2024-02-15T01:43:08;8.90;99.90
9776;DHT22;4927;52.472;13.108;2024-02-15T01:44:09;9.00;99.90
9776;DHT22;4927;52.472;13.108;2024-02-15T01:45:12;9.00;99.90
9776;DHT22;4927;52.472;13.108;2024-02-15T01:46:14;8.90;99.90
9776;DHT22;4927;52.472;13.108;2024-02-15T01:47:17;8.90;99.90
9776;DHT22;4927;52.472;13.108;2024-02-15T01:48:18;8.90;99.90
9776;DHT22;4927;52.472;13.108;2024-02-15T01:49:21;8.90;99.90
9776;DHT22;4927;52.472;13.108;2024-02-15T01:50:23;9.00;99.90
9776;DHT22;4927;52.472;13.108;2024-02-15T01:51:25;8.90;99.90
9776;DHT22;4927;52.472;13.108;2024-02-15T01:52:27;8.90;99.90
9776;DHT22;4927;52.472;13.108;2024-02-15T01:53:29;8.90;99.90
9776;DHT22;4927;52.472;13.108;2024-02-15T01:54:31;8.90;99.90
9776;DHT22;4927;52.472;13.108;2024-02-15T01:55:34;9.00;99.90
9776;DHT22;4927;52.472;13.108;2024-02-15T01:56:36;9.00;99.90
9776;DHT22;4927;52.472;13.108;2024-02-15T01:57:38;8.90;99.90
9776;DHT22;4927;52.472;13.108;2024-02-15T01:58:40;8.90;99.90
9776;DHT22;4927;52.472;13.108;2024-02-15T01:59:41;8.90;99.90
9776;DHT22;4927;52.472;13.108;2024-02-15T02:00:43;9.00;99.90
9776;DHT22;4927;52.472;13.108;2024-02-15T02:01:45;9.00;99.90
9776;DHT22;4927;52.472;13.108;2024-02-15T02:02:47;9.00;99.90
9776;DHT22;4927;52.472;13.108;2024-02-15T02:03:49;9.00;99.90
9776;DHT22;4927;52.472;13.108;2024-02-15T02:04:50;9.00;99.90
9776;DHT22;4927;52.472;13.108;2024-02-15T02:05:53;9.00;99.90
9776;DHT22;4927;52.472;13.108;2024-02-15T02:06:55;9.00;99.90
9776;DHT22;4927;52.472;13.108;2024-02-15T02:07:57;9.00;99.90
9776;DHT22;4927;52.472;13.108;2024-02-15T02:08:59;9.00;99.90
9776;DHT22;4927;52.472;13.108;2024-02-15T02:10:01;9.00;99.90
9776;DHT22;4927;52.472;13.108;2024-02-15T02:11:03;9.00;99.90
9776;DHT22;4927;52.472;13.108;2024-02-15T02:12:06;9.00;99.90
9776;DHT22;4927;52.472;13.108;2024-02-15T02:13:09;9.00;99.90
9776;DHT22;4927;52.472;13.108;2024-02-15T02:14:11;9.00;99.90
9776;DHT22;4927;52.472;13.108;2024-02-15T02:15:12;9.00;99.90
9776;DHT22;4927;52.472;13.108;2024-02-15T02:16:25;9.00;99.90
9776;DHT22;4927;52.472;13.108;2024-02-15T02:17:26;9.00;99.90
9776;DHT22;4927;52.472;13.108;2024-02-15T02:18:28;9.00;99.90
9776;DHT22;4927;52.472;13.108;2024-02-15T02:19:30;9.00;99.90
9776;DHT22;4927;52.472;13.108;2024-02-15T02:20:32;9.00;99.90
9776;DHT22;4927;52.472;13.108;2024-02-15T02:21:33;9.00;99.90
9776;DHT22;4927;52.472;13.108;2024-02-15T02:22:35;9.00;99.90
9776;DHT22;4927;52.472;13.108;2024-02-15T02:23:37;9.00;99.90
9776;DHT22;4927;52.472;13.108;2024-02-15T02:24:58;9.00;99.90
9776;DHT22;4927;52.472;13.108;2024-02-15T02:26:03;9.00;99.90
9776;DHT22;4927;52.472;13.108;2024-02-15T02:27:07;9.00;99.90
9776;DHT22;4927;52.472;13.108;2024-02-15T02:28:08;9.00;99.90
9776;DHT22;4927;52.472;13.108;2024-02-15T02:29:10;9.00;99.90
9776;DHT22;4927;52.472;13.108;2024-02-15T02:30:13;9.00;99.90
9776;DHT22;4927;52.472;13.108;2024-02-15T02:31:16;9.00;99.90
9776;DHT22;4927;52.472;13.108;2024-02-15T02:32:18;9.00;99.90
9776;DHT22;4927;52.472;13.108;2024-02-15T02:33:20;9.00;99.90
9776;DHT22;4927;52.472;13.108;2024-02-15T02:34:21;9.00;99.90
9776;DHT22;4927;52.472;13.108;2024-02-15T02:35:23;9.00;99.90
9776;DHT22;4927;52.472;13.108;2024-02-15T02:36:25;9.00;99.90
9776;DHT22;4927;52.472;13.108;2024-02-15T02:37:27;9.00;99.90
9776;DHT22;4927;52.472;13.108;2024-02-15T02:38:29;9.00;99.90
9776;DHT22;4927;52.472;13.108;2024-02-15T02:39:32;9.00;99.90
9776;DHT22;4927;52.472;13.108;2024-02-15T02:40:33;9.00;99.90
9776;DHT22;4927;52.472;13.108;2024-02-15T02:41:36;9.00;99.90
9776;DHT22;4927;52.472;13.108;2024-02-15T02:42:49;9.00;99.90
9776;DHT22;4927;52.472;13.108;2024-02-15T02:43:51;9.00;99.90
9776;DHT22;4927;52.472;13.108;2024-02-15T02:44:52;9.00;99.90
9776;DHT22;4927;52.472;13.108;2024-02-15T02:45:54;9.00;99.90
9776;DHT22;4927;52.472;13.108;2024-02-15T02:46:56;9.00;99.90
9776;DHT22;4927;52.472;13.108;2024-02-15T02:47:58;9.00;99.90
9776;DHT22;4927;52.472;13.108;2024-02-15T02:49:00;9.00;99.90
9776;DHT22;4927;52.472;13.108;2024-02-15T02:50:03;9.00;99.90
9776;DHT22;4927;52.472;13.108;2024-02-15T02:51:06;9.00;99.90
9776;DHT22;4927;52.472;13.108;2024-02-15T02:52:07;9.00;99.90
9776;DHT22;4927;52.472;13.108;2024-02-15T02:53:09;9.00;99.90
9776;DHT22;4927;52.472;13.108;2024-02-15T02:54:11;9.10;99.90
9776;DHT22;4927;52.472;13.108;2024-02-15T02:55:13;9.00;99.90
9776;DHT22;4927;52.472;13.108;2024-02-15T02:56:14;9.00;99.90
9776;DHT22;4927;52.472;13.108;2024-02-15T02:57:16;9.00;99.90
9776;DHT22;4927;52.472;13.108;2024-02-15T02:58:18;9.00;99.90
9776;DHT22;4927;52.472;13.108;2024-02-15T02:59:20;9.10;99.90
9776;DHT22;4927;52.472;13.108;2024-02-15T03:00:22;9.00;99.90
9776;DHT22;4927;52.472;13.108;2024-02-15T03:01:24;9.00;99.90
9776;DHT22;4927;52.472;13.108;2024-02-15T03:02:26;9.40;99.90
9776;DHT22;4927;52.472;13.108;2024-02-15T03:03:28;9.00;99.90
9776;DHT22;4927;52.472;13.108;2024-02-15T03:04:32;9.10;99.90
9776;DHT22;4927;52.472;13.108;2024-02-15T03:05:32;9.00;99.90
9776;DHT22;4927;52.472;13.108;2024-02-15T03:06:35;9.10;99.90
9776;DHT22;4927;52.472;13.108;2024-02-15T03:07:38;9.10;99.90
9776;DHT22;4927;52.472;13.108;2024-02-15T03:08:39;9.00;99.90
9776;DHT22;4927;52.472;13.108;2024-02-15T03:09:42;9.10;99.90
9776;DHT22;4927;52.472;13.108;2024-02-15T03:10:44;9.00;99.90
9776;DHT22;4927;52.472;13.108;2024-02-15T03:11:45;9.00;99.90
9776;DHT22;4927;52.472;13.108;2024-02-15T03:12:47;9.10;99.90
9776;DHT22;4927;52.472;13.108;2024-02-15T03:13:50;9.10;99.90
9776;DHT22;4927;52.472;13.108;2024-02-15T03:14:52;9.10;99.90
9776;DHT22;4927;52.472;13.108;2024-02-15T03:15:54;9.10;99.90
9776;DHT22;4927;52.472;13.108;2024-02-15T03:16:55;9.00;99.90
9776;DHT22;4927;52.472;13.108;2024-02-15T03:17:57;9.10;99.90
9776;DHT22;4927;52.472;13.108;2024-02-15T03:18:59;9.10;99.90
9776;DHT22;4927;52.472;13.108;2024-02-15T03:20:01;9.10;99.90
9776;DHT22;4927;52.472;13.108;2024-02-15T03:21:03;9.10;99.90
9776;DHT22;4927;52.472;13.108;2024-02-15T03:22:05;9.10;99.90
9776;DHT22;4927;52.472;13.108;2024-02-15T03:23:06;9.10;99.90
9776;DHT22;4927;52.472;13.108;2024-02-15T03:24:09;9.10;99.90
9776;DHT22;4927;52.472;13.108;2024-02-15T03:25:11;9.10;99.90
9776;DHT22;4927;52.472;13.108;2024-02-15T03:26:13;9.10;99.90
9776;DHT22;4927;52.472;13.108;2024-02-15T03:27:15;9.10;99.90
9776;DHT22;4927;52.472;13.108;2024-02-15T03:28:16;9.10;99.90
9776;DHT22;4927;52.472;13.108;2024-02-15T03:29:18;9.10;99.90
9776;DHT22;4927;52.472;13.108;2024-02-15T03:30:21;9.10;99.90
9776;DHT22;4927;52.472;13.108;2024-02-15T03:31:23;9.10;99.90
9776;DHT22;4927;52.472;13.108;2024-02-15T03:32:24;9.10;99.90
9776;DHT22;4927;52.472;13.108;2024-02-15T03:33:27;9.10;99.90
9776;DHT22;4927;52.472;13.108;2024-02-15T03:34:29;9.10;99.90
9776;DHT22;4927;52.472;13.108;2024-02-15T03:35:31;9.10;99.90
9776;DHT22;4927;52.472;13.108;2024-02-15T03:36:33;9.10;99.90
9776;DHT22;4927;52.472;13.108;2024-02-15T03:37:35;9.10;99.90
9776;DHT22;4927;52.472;13.108;2024-02-15T03:38:36;9.10;99.90
9776;DHT22;4927;52.472;13.108;2024-02-15T03:39:38;9.10;99.90
9776;DHT22;4927;52.472;13.108;2024-02-15T03:40:41;9.10;99.90
9776;DHT22;4927;52.472;13.108;2024-02-15T03:41:42;9.10;99.90
9776;DHT22;4927;52.472;13.108;2024-02-15T03:42:45;9.10;99.90
9776;DHT22;4927;52.472;13.108;2024-02-15T03:43:46;9.20;99.90
9776;DHT22;4927;52.472;13.108;2024-02-15T03:44:48;9.10;99.90
9776;DHT22;4927;52.472;13.108;2024-02-15T03:45:50;9.10;99.90
9776;DHT22;4927;52.472;13.108;2024-02-15T03:46:52;9.20;99.90
9776;DHT22;4927;52.472;13.108;2024-02-15T03:47:53;9.20;99.90
9776;DHT22;4927;52.472;13.108;2024-02-15T03:48:55;9.20;99.90
9776;DHT22;4927;52.472;13.108;2024-02-15T03:49:58;9.20;99.90
9776;DHT22;4927;52.472;13.108;2024-02-15T03:51:01;9.20;99.90
9776;DHT22;4927;52.472;13.108;2024-02-15T03:52:03;9.20;99.90
9776;DHT22;4927;52.472;13.108;2024-02-15T03:53:06;9.20;99.90
9776;DHT22;4927;52.472;13.108;2024-02-15T03:54:08;9.20;99.90
9776;DHT22;4927;52.472;13.108;2024-02-15T03:55:10;9.20;99.90
9776;DHT22;4927;52.472;13.108;2024-02-15T03:56:12;9.10;99.90
9776;DHT22;4927;52.472;13.108;2024-02-15T03:57:13;9.20;99.90
9776;DHT22;4927;52.472;13.108;2024-02-15T03:58:15;7.80;99.90
9776;DHT22;4927;52.472;13.108;2024-02-15T03:59:17;9.10;99.90
9776;DHT22;4927;52.472;13.108;2024-02-15T04:00:20;9.20;99.90
9776;DHT22;4927;52.472;13.108;2024-02-15T04:01:22;9.10;99.90
9776;DHT22;4927;52.472;13.108;2024-02-15T04:02:25;9.10;99.90
9776;DHT22;4927;52.472;13.108;2024-02-15T04:03:27;9.20;99.90
9776;DHT22;4927;52.472;13.108;2024-02-15T04:04:29;9.20;99.90
9776;DHT22;4927;52.472;13.108;2024-02-15T04:05:31;9.10;99.90
9776;DHT22;4927;52.472;13.108;2024-02-15T04:06:34;9.20;99.90
9776;DHT22;4927;52.472;13.108;2024-02-15T04:07:36;9.10;99.90
9776;DHT22;4927;52.472;13.108;2024-02-15T04:08:37;9.20;99.90
9776;DHT22;4927;52.472;13.108;2024-02-15T04:09:39;9.20;99.90
9776;DHT22;4927;52.472;13.108;2024-02-15T04:10:41;9.20;99.90
9776;DHT22;4927;52.472;13.108;2024-02-15T04:11:43;9.10;99.90
9776;DHT22;4927;52.472;13.108;2024-02-15T04:12:45;9.10;99.90
9776;DHT22;4927;52.472;13.108;2024-02-15T04:13:46;9.20;99.90
9776;DHT22;4927;52.472;13.108;2024-02-15T04:14:49;9.20;99.90
9776;DHT22;4927;52.472;13.108;2024-02-15T04:15:51;9.10;99.90
9776;DHT22;4927;52.472;13.108;2024-02-15T04:16:53;9.10;99.90
9776;DHT22;4927;52.472;13.108;2024-02-15T04:17:54;9.20;99.90
9776;DHT22;4927;52.472;13.108;2024-02-15T04:18:57;9.20;99.90
9776;DHT22;4927;52.472;13.108;2024-02-15T04:19:59;9.20;99.90
9776;DHT22;4927;52.472;13.108;2024-02-15T04:21:01;9.10;99.90
9776;DHT22;4927;52.472;13.108;2024-02-15T04:22:03;9.10;99.90
9776;DHT22;4927;52.472;13.108;2024-02-15T04:23:06;9.20;99.90
9776;DHT22;4927;52.472;13.108;2024-02-15T04:24:07;9.10;99.90
9776;DHT22;4927;52.472;13.108;2024-02-15T04:25:09;9.20;99.90
9776;DHT22;4927;52.472;13.108;2024-02-15T04:26:11;9.20;99.90
9776;DHT22;4927;52.472;13.108;2024-02-15T04:27:14;9.20;99.90
9776;DHT22;4927;52.472;13.108;2024-02-15T04:28:16;9.20;99.90
9776;DHT22;4927;52.472;13.108;2024-02-15T04:29:18;9.20;99.90
9776;DHT22;4927;52.472;13.108;2024-02-15T04:30:20;9.20;99.90
9776;DHT22;4927;52.472;13.108;2024-02-15T04:31:31;9.20;99.90
9776;DHT22;4927;52.472;13.108;2024-02-15T04:32:50;9.20;99.90
9776;DHT22;4927;52.472;13.108;2024-02-15T04:33:53;9.20;99.90
9776;DHT22;4927;52.472;13.108;2024-02-15T04:34:54;9.20;99.90
9776;DHT22;4927;52.472;13.108;2024-02-15T04:35:56;9.20;99.90
9776;DHT22;4927;52.472;13.108;2024-02-15T04:36:57;9.20;99.90
9776;DHT22;4927;52.472;13.108;2024-02-15T04:37:59;9.20;99.90
9776;DHT22;4927;52.472;13.108;2024-02-15T04:39:01;9.20;99.90
9776;DHT22;4927;52.472;13.108;2024-02-15T04:40:05;9.20;99.90
9776;DHT22;4927;52.472;13.108;2024-02-15T04:41:07;9.20;99.90
9776;DHT22;4927;52.472;13.108;2024-02-15T04:42:09;9.20;99.90
9776;DHT22;4927;52.472;13.108;2024-02-15T04:43:12;9.20;99.90
9776;DHT22;4927;52.472;13.108;2024-02-15T04:44:13;9.20;99.90
9776;DHT22;4927;52.472;13.108;2024-02-15T04:45:15;9.20;99.90
9776;DHT22;4927;52.472;13.108;2024-02-15T04:46:18;9.20;99.90
9776;DHT22;4927;52.472;13.108;2024-02-15T04:47:19;9.20;99.90
9776;DHT22;4927;52.472;13.108;2024-02-15T04:48:21;9.20;99.90
9776;DHT22;4927;52.472;13.108;2024-02-15T04:49:23;9.20;99.90
9776;DHT22;4927;52.472;13.108;2024-02-15T04:50:25;9.20;99.90
9776;DHT22;4927;52.472;13.108;2024-02-15T04:51:26;9.20;99.90
9776;DHT22;4927;52.472;13.108;2024-02-15T04:52:28;9.20;99.90
9776;DHT22;4927;52.472;13.108;2024-02-15T04:53:31;9.20;99.90
9776;DHT22;4927;52.472;13.108;2024-02-15T04:54:33;9.20;99.90
9776;DHT22;4927;52.472;13.108;2024-02-15T04:55:34;9.30;99.90
9776;DHT22;4927;52.472;13.108;2024-02-15T04:56:37;9.30;99.90
9776;DHT22;4927;52.472;13.108;2024-02-15T04:57:39;9.20;99.90
9776;DHT22;4927;52.472;13.108;2024-02-15T04:58:41;9.20;99.90
9776;DHT22;4927;52.472;13.108;2024-02-15T04:59:47;9.20;99.90
9776;DHT22;4927;52.472;13.108;2024-02-15T05:00:49;9.20;99.90
9776;DHT22;4927;52.472;13.108;2024-02-15T05:01:51;9.30;99.90
9776;DHT22;4927;52.472;13.108;2024-02-15T05:02:53;9.30;99.90
9776;DHT22;4927;52.472;13.108;2024-02-15T05:03:55;9.30;99.90
9776;DHT22;4927;52.472;13.108;2024-02-15T05:04:58;9.30;99.90
9776;DHT22;4927;52.472;13.108;2024-02-15T05:06:00;9.20;99.90
9776;DHT22;4927;52.472;13.108;2024-02-15T05:07:02;9.30;99.90
9776;DHT22;4927;52.472;13.108;2024-02-15T05:08:05;9.30;99.90
9776;DHT22;4927;52.472;13.108;2024-02-15T05:09:08;9.30;99.90
9776;DHT22;4927;52.472;13.108;2024-02-15T05:10:10;9.30;99.90
9776;DHT22;4927;52.472;13.108;2024-02-15T05:11:12;9.30;99.90
9776;DHT22;4927;52.472;13.108;2024-02-15T05:12:22;9.30;99.90
9776;DHT22;4927;52.472;13.108;2024-02-15T05:13:24;9.30;99.90
9776;DHT22;4927;52.472;13.108;2024-02-15T05:14:26;9.30;99.90
9776;DHT22;4927;52.472;13.108;2024-02-15T05:15:28;9.30;99.90
9776;DHT22;4927;52.472;13.108;2024-02-15T05:16:30;9.30;99.90
9776;DHT22;4927;52.472;13.108;2024-02-15T05:17:31;9.30;99.90
9776;DHT22;4927;52.472;13.108;2024-02-15T05:18:33;9.30;99.90
9776;DHT22;4927;52.472;13.108;2024-02-15T05:19:36;9.30;99.90
9776;DHT22;4927;52.472;13.108;2024-02-15T05:20:37;9.20;99.90
9776;DHT22;4927;52.472;13.108;2024-02-15T05:21:40;9.30;99.90
9776;DHT22;4927;52.472;13.108;2024-02-15T05:22:42;9.30;99.90
9776;DHT22;4927;52.472;13.108;2024-02-15T05:23:44;9.20;99.90
9776;DHT22;4927;52.472;13.108;2024-02-15T05:24:46;9.20;99.90
9776;DHT22;4927;52.472;13.108;2024-02-15T05:25:48;9.20;99.90
9776;DHT22;4927;52.472;13.108;2024-02-15T05:26:51;9.30;99.90
9776;DHT22;4927;52.472;13.108;2024-02-15T05:27:53;9.30;99.90
9776;DHT22;4927;52.472;13.108;2024-02-15T05:28:54;9.30;99.90
9776;DHT22;4927;52.472;13.108;2024-02-15T05:29:56;9.20;99.90
9776;DHT22;4927;52.472;13.108;2024-02-15T05:31:15;9.30;99.90
9776;DHT22;4927;52.472;13.108;2024-02-15T05:32:16;9.30;99.90
9776;DHT22;4927;52.472;13.108;2024-02-15T05:33:18;9.30;99.90
9776;DHT22;4927;52.472;13.108;2024-02-15T05:34:21;9.30;99.90
9776;DHT22;4927;52.472;13.108;2024-02-15T05:35:23;9.30;99.90
9776;DHT22;4927;52.472;13.108;2024-02-15T05:36:25;9.30;99.90
9776;DHT22;4927;52.472;13.108;2024-02-15T05:37:28;9.30;99.90
9776;DHT22;4927;52.472;13.108;2024-02-15T05:38:30;9.20;99.90
9776;DHT22;4927;52.472;13.108;2024-02-15T05:39:32;9.30;99.90
9776;DHT22;4927;52.472;13.108;2024-02-15T05:40:34;9.30;99.90
9776;DHT22;4927;52.472;13.108;2024-02-15T05:41:36;9.30;99.90
9776;DHT22;4927;52.472;13.108;2024-02-15T05:42:38;9.30;99.90
9776;DHT22;4927;52.472;13.108;2024-02-15T05:43:40;9.30;99.90
9776;DHT22;4927;52.472;13.108;2024-02-15T05:44:41;9.30;99.90
9776;DHT22;4927;52.472;13.108;2024-02-15T05:45:44;9.30;99.90
9776;DHT22;4927;52.472;13.108;2024-02-15T05:46:46;9.30;99.90
9776;DHT22;4927;52.472;13.108;2024-02-15T05:47:48;9.30;99.90
9776;DHT22;4927;52.472;13.108;2024-02-15T05:48:50;9.30;99.90
9776;DHT22;4927;52.472;13.108;2024-02-15T05:49:52;9.30;99.90
9776;DHT22;4927;52.472;13.108;2024-02-15T05:50:55;9.30;99.90
9776;DHT22;4927;52.472;13.108;2024-02-15T05:51:57;9.30;99.90
9776;DHT22;4927;52.472;13.108;2024-02-15T05:52:59;9.30;99.90
9776;DHT22;4927;52.472;13.108;2024-02-15T05:54:01;9.30;99.90
9776;DHT22;4927;52.472;13.108;2024-02-15T05:55:04;9.30;99.90
9776;DHT22;4927;52.472;13.108;2024-02-15T05:56:07;9.30;99.90
9776;DHT22;4927;52.472;13.108;2024-02-15T05:57:09;9.30;99.90
9776;DHT22;4927;52.472;13.108;2024-02-15T05:58:10;9.30;99.90
9776;DHT22;4927;52.472;13.108;2024-02-15T05:59:12;9.30;99.90
9776;DHT22;4927;52.472;13.108;2024-02-15T06:00:15;9.30;99.90
9776;DHT22;4927;52.472;13.108;2024-02-15T06:01:18;9.30;99.90
9776;DHT22;4927;52.472;13.108;2024-02-15T06:02:20;9.30;99.90
9776;DHT22;4927;52.472;13.108;2024-02-15T06:03:22;9.30;99.90
9776;DHT22;4927;52.472;13.108;2024-02-15T06:04:24;9.30;99.90
9776;DHT22;4927;52.472;13.108;2024-02-15T06:05:26;9.30;99.90
9776;DHT22;4927;52.472;13.108;2024-02-15T06:06:28;9.40;99.90
9776;DHT22;4927;52.472;13.108;2024-02-15T06:07:30;9.30;99.90
9776;DHT22;4927;52.472;13.108;2024-02-15T06:08:32;9.40;99.90
9776;DHT22;4927;52.472;13.108;2024-02-15T06:09:34;9.30;99.90
9776;DHT22;4927;52.472;13.108;2024-02-15T06:10:35;9.30;99.90
9776;DHT22;4927;52.472;13.108;2024-02-15T06:11:37;9.30;99.90
9776;DHT22;4927;52.472;13.108;2024-02-15T06:12:39;9.30;99.90
9776;DHT22;4927;52.472;13.108;2024-02-15T06:13:41;9.30;99.90
9776;DHT22;4927;52.472;13.108;2024-02-15T06:14:43;9.30;99.90
9776;DHT22;4927;52.472;13.108;2024-02-15T06:15:45;9.30;99.90
9776;DHT22;4927;52.472;13.108;2024-02-15T06:16:47;9.30;99.90
9776;DHT22;4927;52.472;13.108;2024-02-15T06:17:48;9.30;99.90
9776;DHT22;4927;52.472;13.108;2024-02-15T06:18:50;9.30;99.90
9776;DHT22;4927;52.472;13.108;2024-02-15T06:19:52;9.30;99.90
9776;DHT22;4927;52.472;13.108;2024-02-15T06:20:55;9.30;99.90
9776;DHT22;4927;52.472;13.108;2024-02-15T06:21:59;9.40;99.90
9776;DHT22;4927;52.472;13.108;2024-02-15T06:23:01;9.30;99.90
9776;DHT22;4927;52.472;13.108;2024-02-15T06:24:03;9.40;99.90
9776;DHT22;4927;52.472;13.108;2024-02-15T06:25:06;9.40;99.90
9776;DHT22;4927;52.472;13.108;2024-02-15T06:26:09;9.40;99.90
9776;DHT22;4927;52.472;13.108;2024-02-15T06:27:10;9.40;99.90
9776;DHT22;4927;52.472;13.108;2024-02-15T06:28:12;9.40;99.90
9776;DHT22;4927;52.472;13.108;2024-02-15T06:29:14;9.40;99.90
9776;DHT22;4927;52.472;13.108;2024-02-15T06:30:31;9.40;99.90
9776;DHT22;4927;52.472;13.108;2024-02-15T06:31:39;9.40;99.90
9776;DHT22;4927;52.472;13.108;2024-02-15T06:32:47;9.40;99.90
9776;DHT22;4927;52.472;13.108;2024-02-15T06:33:55;9.40;99.90
9776;DHT22;4927;52.472;13.108;2024-02-15T06:35:03;9.40;99.90
9776;DHT22;4927;52.472;13.108;2024-02-15T06:36:12;9.40;99.90
9776;DHT22;4927;52.472;13.108;2024-02-15T06:38:43;9.40;99.90
9776;DHT22;4927;52.472;13.108;2024-02-15T06:39:51;9.40;99.90
9776;DHT22;4927;52.472;13.108;2024-02-15T06:40:53;9.40;99.90
9776;DHT22;4927;52.472;13.108;2024-02-15T06:41:54;9.40;99.90
9776;DHT22;4927;52.472;13.108;2024-02-15T06:42:57;9.40;99.90
9776;DHT22;4927;52.472;13.108;2024-02-15T06:43:59;9.40;99.90
9776;DHT22;4927;52.472;13.108;2024-02-15T06:45:01;9.50;99.90
9776;DHT22;4927;52.472;13.108;2024-02-15T06:46:05;9.40;99.90
9776;DHT22;4927;52.472;13.108;2024-02-15T06:47:05;9.40;99.90
9776;DHT22;4927;52.472;13.108;2024-02-15T06:48:07;9.40;99.90
9776;DHT22;4927;52.472;13.108;2024-02-15T06:49:09;9.40;99.90